Bellevue, WA (98004)

11:22 AM PDT on March 25, 2017 (GMT -0700)
Northwest Bellevue | | Change Station

Elev 0 ft 47.62 °N, 122.21 °W | Updated 9 minutes ago

Overcast
Overcast
48.0 °F
Feels Like 48 °F
N
2.5
Wind Variable Wind from South
Gusts 9.3 mph

Today
High -- | Low -- °F
--% Chance of Precip.
Yesterday
High -- | Low -- °F
Precip. -- in
Pressure 30.13 in
Visibility 10.0 miles
Clouds Scattered Clouds 2400 ft
Overcast 7000 ft
Windchill 48 °F
Dew Point 42 °F
Humidity 78%
Rainfall 0.00 in
Snow Depth Not available.
7:00 AM 7:29 PM
Waning Crescent, 7% visible
METAR KBFI 251753Z 18008G16KT 160V230 10SM SCT024 OVC070 09/06 A3013 RMK AO2 SLP201 T00890056 10089 20067 53007
Pressure 30.13 in
Visibility 10.0 miles
Clouds Scattered Clouds 2400 ft
Overcast 7000 ft
Windchill 48 °F
Dew Point 42 °F
Humidity 78%
Rainfall 0.00 in
Snow Depth Not available.
7:00 AM 7:29 PM
Waning Crescent, 7% visible
METAR KBFI 251753Z 18008G16KT 160V230 10SM SCT024 OVC070 09/06 A3013 RMK AO2 SLP201 T00890056 10089 20067 53007

Get Severe Weather Alerts

Thanks for signing up!

Be on the lookout for a verification email in your inbox.

You'll start receiving the daily forecast at 8 AM.

×

10-Day Weather Forecast

Almanac

Astronomy

Mar. 25, 2017 Rise Set
Actual Time
Civil Twilight
Nautical Twilight
Astronomical Twilight
Moon
Length of Visible Light
Length of Day
Tomorrow will be .
, % of the Moon is Illuminated

Today's Extremes

State Highs State Lows

Community

WunderPhotos

Upload Photos

1,962,540 photos uploaded!

WunderBlog® & News

Nearby

Air Quality

  Air Quality AQ Index Pollutant
Not available.

Snow Depth

Station Depth Elevation

Earthquake Activity

City Distance Mag. Time & Date
Minimum magnitude displayed is 2.5.

Earthquake Activity

City Distance Mag. Time & Date
Minimum magnitude displayed is 2.5.

Coastal Water Temperatures

Place Temperature

Stations

Nearby Weather Stations

Station Location Temp. Windchill Dew Point Humidity Wind Precip. Elev Updated Type
                   

Watches & Warnings

There are currently no watches in effect.